sensor_id;sensor_type;location;lat;lon;timestamp;P1;durP1;ratioP1;P2;durP2;ratioP2
16199;SDS011;8207;52.494;4.654;2023-04-24T00:00:23;2.83;;;1.00;;
16199;SDS011;8207;52.494;4.654;2023-04-24T00:02:52;0.80;;;0.60;;
16199;SDS011;8207;52.494;4.654;2023-04-24T00:05:22;1.00;;;0.90;;
16199;SDS011;8207;52.494;4.654;2023-04-24T00:07:49;1.53;;;0.90;;
16199;SDS011;8207;52.494;4.654;2023-04-24T00:10:17;1.97;;;0.83;;
16199;SDS011;8207;52.494;4.654;2023-04-24T00:12:44;1.57;;;0.90;;
16199;SDS011;8207;52.494;4.654;2023-04-24T00:15:11;1.87;;;0.80;;
16199;SDS011;8207;52.494;4.654;2023-04-24T00:17:38;1.90;;;0.90;;
16199;SDS011;8207;52.494;4.654;2023-04-24T00:20:08;1.10;;;0.90;;
16199;SDS011;8207;52.494;4.654;2023-04-24T00:22:36;1.77;;;1.13;;
16199;SDS011;8207;52.494;4.654;2023-04-24T00:25:04;1.23;;;0.90;;
16199;SDS011;8207;52.494;4.654;2023-04-24T00:27:31;1.00;;;0.87;;
16199;SDS011;8207;52.494;4.654;2023-04-24T00:30:00;1.07;;;0.90;;
16199;SDS011;8207;52.494;4.654;2023-04-24T00:32:27;0.87;;;0.80;;
16199;SDS011;8207;52.494;4.654;2023-04-24T00:34:53;1.27;;;0.87;;
16199;SDS011;8207;52.494;4.654;2023-04-24T00:37:22;2.40;;;1.00;;
16199;SDS011;8207;52.494;4.654;2023-04-24T00:39:49;4.30;;;1.30;;
16199;SDS011;8207;52.494;4.654;2023-04-24T00:42:15;1.20;;;1.10;;
16199;SDS011;8207;52.494;4.654;2023-04-24T00:44:42;5.90;;;1.20;;
16199;SDS011;8207;52.494;4.654;2023-04-24T00:47:09;3.67;;;3.00;;
16199;SDS011;8207;52.494;4.654;2023-04-24T00:49:38;3.77;;;3.33;;
16199;SDS011;8207;52.494;4.654;2023-04-24T00:52:05;4.23;;;2.73;;
16199;SDS011;8207;52.494;4.654;2023-04-24T00:54:34;3.97;;;3.37;;
16199;SDS011;8207;52.494;4.654;2023-04-24T00:57:00;7.20;;;5.70;;
16199;SDS011;8207;52.494;4.654;2023-04-24T00:59:28;9.23;;;6.07;;
16199;SDS011;8207;52.494;4.654;2023-04-24T01:01:55;8.47;;;5.83;;
16199;SDS011;8207;52.494;4.654;2023-04-24T01:04:22;6.90;;;4.60;;
16199;SDS011;8207;52.494;4.654;2023-04-24T01:06:51;7.73;;;5.30;;
16199;SDS011;8207;52.494;4.654;2023-04-24T01:09:18;10.37;;;7.23;;
16199;SDS011;8207;52.494;4.654;2023-04-24T01:11:48;8.90;;;6.20;;
16199;SDS011;8207;52.494;4.654;2023-04-24T01:14:15;8.77;;;5.37;;
16199;SDS011;8207;52.494;4.654;2023-04-24T01:16:42;8.13;;;4.97;;
16199;SDS011;8207;52.494;4.654;2023-04-24T01:19:09;12.77;;;6.77;;
16199;SDS011;8207;52.494;4.654;2023-04-24T01:21:37;11.77;;;6.43;;
16199;SDS011;8207;52.494;4.654;2023-04-24T01:24:06;7.23;;;5.87;;
16199;SDS011;8207;52.494;4.654;2023-04-24T01:26:33;10.47;;;6.20;;
16199;SDS011;8207;52.494;4.654;2023-04-24T01:29:00;9.43;;;6.13;;
16199;SDS011;8207;52.494;4.654;2023-04-24T01:31:27;10.47;;;6.30;;
16199;SDS011;8207;52.494;4.654;2023-04-24T01:33:55;13.50;;;5.57;;
16199;SDS011;8207;52.494;4.654;2023-04-24T01:36:23;8.47;;;4.83;;
16199;SDS011;8207;52.494;4.654;2023-04-24T01:38:52;11.87;;;4.57;;
16199;SDS011;8207;52.494;4.654;2023-04-24T01:41:20;8.33;;;3.77;;
16199;SDS011;8207;52.494;4.654;2023-04-24T01:43:48;12.33;;;3.30;;
16199;SDS011;8207;52.494;4.654;2023-04-24T01:46:15;12.70;;;3.63;;
16199;SDS011;8207;52.494;4.654;2023-04-24T01:48:42;6.17;;;2.00;;
16199;SDS011;8207;52.494;4.654;2023-04-24T01:51:11;7.57;;;1.97;;
16199;SDS011;8207;52.494;4.654;2023-04-24T01:53:38;8.30;;;1.83;;
16199;SDS011;8207;52.494;4.654;2023-04-24T01:56:05;8.43;;;1.77;;
16199;SDS011;8207;52.494;4.654;2023-04-24T01:58:34;7.80;;;1.67;;
16199;SDS011;8207;52.494;4.654;2023-04-24T02:01:01;3.50;;;1.30;;
16199;SDS011;8207;52.494;4.654;2023-04-24T02:03:28;4.40;;;1.57;;
16199;SDS011;8207;52.494;4.654;2023-04-24T02:05:54;4.00;;;1.87;;
16199;SDS011;8207;52.494;4.654;2023-04-24T02:08:21;6.53;;;2.53;;
16199;SDS011;8207;52.494;4.654;2023-04-24T02:10:49;5.63;;;1.80;;
16199;SDS011;8207;52.494;4.654;2023-04-24T02:13:15;6.10;;;1.83;;
16199;SDS011;8207;52.494;4.654;2023-04-24T02:15:44;5.50;;;1.57;;
16199;SDS011;8207;52.494;4.654;2023-04-24T02:18:10;7.27;;;1.50;;
16199;SDS011;8207;52.494;4.654;2023-04-24T02:20:37;4.70;;;1.20;;
16199;SDS011;8207;52.494;4.654;2023-04-24T02:23:04;2.57;;;1.20;;
16199;SDS011;8207;52.494;4.654;2023-04-24T02:25:31;3.57;;;1.30;;
16199;SDS011;8207;52.494;4.654;2023-04-24T02:27:59;4.50;;;1.70;;
16199;SDS011;8207;52.494;4.654;2023-04-24T02:30:26;1.83;;;1.27;;
16199;SDS011;8207;52.494;4.654;2023-04-24T02:32:54;6.73;;;2.60;;
16199;SDS011;8207;52.494;4.654;2023-04-24T02:35:21;4.83;;;2.60;;
16199;SDS011;8207;52.494;4.654;2023-04-24T02:37:48;5.93;;;3.10;;
16199;SDS011;8207;52.494;4.654;2023-04-24T02:40:15;8.13;;;2.80;;
16199;SDS011;8207;52.494;4.654;2023-04-24T02:42:42;5.30;;;2.13;;
16199;SDS011;8207;52.494;4.654;2023-04-24T02:45:10;3.83;;;1.80;;
16199;SDS011;8207;52.494;4.654;2023-04-24T02:47:37;6.00;;;2.17;;
16199;SDS011;8207;52.494;4.654;2023-04-24T02:50:06;2.97;;;1.70;;
16199;SDS011;8207;52.494;4.654;2023-04-24T02:52:33;4.73;;;1.87;;
16199;SDS011;8207;52.494;4.654;2023-04-24T02:55:00;3.67;;;1.60;;
16199;SDS011;8207;52.494;4.654;2023-04-24T02:57:27;6.43;;;1.60;;
16199;SDS011;8207;52.494;4.654;2023-04-24T02:59:54;2.23;;;1.40;;
16199;SDS011;8207;52.494;4.654;2023-04-24T03:02:21;5.27;;;1.70;;
16199;SDS011;8207;52.494;4.654;2023-04-24T03:04:48;2.97;;;1.50;;
16199;SDS011;8207;52.494;4.654;2023-04-24T03:07:16;7.40;;;1.27;;
16199;SDS011;8207;52.494;4.654;2023-04-24T03:09:45;4.37;;;1.33;;
16199;SDS011;8207;52.494;4.654;2023-04-24T03:12:12;4.17;;;1.30;;
16199;SDS011;8207;52.494;4.654;2023-04-24T03:14:39;4.70;;;1.50;;
16199;SDS011;8207;52.494;4.654;2023-04-24T03:17:06;6.43;;;1.97;;
16199;SDS011;8207;52.494;4.654;2023-04-24T03:19:33;3.83;;;1.20;;
16199;SDS011;8207;52.494;4.654;2023-04-24T03:22:01;4.63;;;1.30;;
16199;SDS011;8207;52.494;4.654;2023-04-24T03:24:29;4.40;;;1.30;;
16199;SDS011;8207;52.494;4.654;2023-04-24T03:26:56;4.33;;;1.33;;
16199;SDS011;8207;52.494;4.654;2023-04-24T03:29:23;5.50;;;2.03;;
16199;SDS011;8207;52.494;4.654;2023-04-24T03:31:50;3.67;;;1.70;;
16199;SDS011;8207;52.494;4.654;2023-04-24T03:34:17;7.93;;;2.07;;
16199;SDS011;8207;52.494;4.654;2023-04-24T03:36:44;5.90;;;1.90;;
16199;SDS011;8207;52.494;4.654;2023-04-24T03:39:12;4.67;;;1.80;;
16199;SDS011;8207;52.494;4.654;2023-04-24T03:41:41;10.47;;;2.97;;
16199;SDS011;8207;52.494;4.654;2023-04-24T03:44:07;6.00;;;1.50;;
16199;SDS011;8207;52.494;4.654;2023-04-24T03:46:34;5.77;;;1.70;;
16199;SDS011;8207;52.494;4.654;2023-04-24T03:49:01;5.90;;;1.70;;
16199;SDS011;8207;52.494;4.654;2023-04-24T03:51:28;4.17;;;2.03;;
16199;SDS011;8207;52.494;4.654;2023-04-24T03:53:56;6.47;;;3.20;;
16199;SDS011;8207;52.494;4.654;2023-04-24T03:56:23;9.33;;;3.53;;
16199;SDS011;8207;52.494;4.654;2023-04-24T03:58:51;3.13;;;1.93;;
16199;SDS011;8207;52.494;4.654;2023-04-24T04:01:18;2.10;;;1.53;;
16199;SDS011;8207;52.494;4.654;2023-04-24T04:03:45;1.10;;;1.00;;
16199;SDS011;8207;52.494;4.654;2023-04-24T04:06:12;1.53;;;1.07;;
16199;SDS011;8207;52.494;4.654;2023-04-24T04:08:39;1.30;;;1.13;;
16199;SDS011;8207;52.494;4.654;2023-04-24T04:11:06;4.73;;;1.20;;
16199;SDS011;8207;52.494;4.654;2023-04-24T04:13:33;4.17;;;1.93;;
16199;SDS011;8207;52.494;4.654;2023-04-24T04:16:01;2.50;;;1.27;;
16199;SDS011;8207;52.494;4.654;2023-04-24T04:18:28;3.07;;;1.50;;
16199;SDS011;8207;52.494;4.654;2023-04-24T04:20:55;2.47;;;1.50;;
16199;SDS011;8207;52.494;4.654;2023-04-24T04:23:22;2.33;;;1.30;;
16199;SDS011;8207;52.494;4.654;2023-04-24T04:25:49;5.53;;;1.43;;
16199;SDS011;8207;52.494;4.654;2023-04-24T04:28:16;3.33;;;1.60;;
16199;SDS011;8207;52.494;4.654;2023-04-24T04:30:44;3.07;;;1.30;;
16199;SDS011;8207;52.494;4.654;2023-04-24T04:33:13;4.47;;;1.60;;
16199;SDS011;8207;52.494;4.654;2023-04-24T04:35:41;7.53;;;2.63;;
16199;SDS011;8207;52.494;4.654;2023-04-24T04:38:08;7.80;;;2.30;;
16199;SDS011;8207;52.494;4.654;2023-04-24T04:40:35;3.47;;;2.30;;
16199;SDS011;8207;52.494;4.654;2023-04-24T04:43:02;10.00;;;3.33;;
16199;SDS011;8207;52.494;4.654;2023-04-24T04:45:29;7.43;;;4.27;;
16199;SDS011;8207;52.494;4.654;2023-04-24T04:47:57;6.17;;;3.87;;
16199;SDS011;8207;52.494;4.654;2023-04-24T04:50:27;13.67;;;6.53;;
16199;SDS011;8207;52.494;4.654;2023-04-24T04:52:54;11.63;;;7.63;;
16199;SDS011;8207;52.494;4.654;2023-04-24T04:55:20;9.63;;;6.93;;
16199;SDS011;8207;52.494;4.654;2023-04-24T04:57:47;14.43;;;6.93;;
16199;SDS011;8207;52.494;4.654;2023-04-24T05:00:14;14.37;;;7.50;;
16199;SDS011;8207;52.494;4.654;2023-04-24T05:02:41;21.30;;;11.23;;
16199;SDS011;8207;52.494;4.654;2023-04-24T05:05:08;21.87;;;12.50;;
16199;SDS011;8207;52.494;4.654;2023-04-24T05:07:37;26.00;;;15.43;;
16199;SDS011;8207;52.494;4.654;2023-04-24T05:10:04;27.10;;;15.30;;
16199;SDS011;8207;52.494;4.654;2023-04-24T05:12:32;27.50;;;14.93;;
16199;SDS011;8207;52.494;4.654;2023-04-24T05:14:58;33.43;;;14.53;;
16199;SDS011;8207;52.494;4.654;2023-04-24T05:17:25;20.53;;;12.97;;
16199;SDS011;8207;52.494;4.654;2023-04-24T05:19:52;22.87;;;12.13;;
16199;SDS011;8207;52.494;4.654;2023-04-24T05:22:19;29.70;;;14.23;;
16199;SDS011;8207;52.494;4.654;2023-04-24T05:24:48;19.60;;;11.83;;
16199;SDS011;8207;52.494;4.654;2023-04-24T05:27:15;20.77;;;10.67;;
16199;SDS011;8207;52.494;4.654;2023-04-24T05:29:42;22.57;;;11.20;;
16199;SDS011;8207;52.494;4.654;2023-04-24T05:32:09;18.93;;;11.00;;
16199;SDS011;8207;52.494;4.654;2023-04-24T05:34:36;23.20;;;11.47;;
16199;SDS011;8207;52.494;4.654;2023-04-24T05:37:03;21.03;;;9.73;;
16199;SDS011;8207;52.494;4.654;2023-04-24T05:39:33;20.40;;;9.50;;
16199;SDS011;8207;52.494;4.654;2023-04-24T05:42:01;18.30;;;9.70;;
16199;SDS011;8207;52.494;4.654;2023-04-24T05:44:29;22.90;;;9.97;;
16199;SDS011;8207;52.494;4.654;2023-04-24T05:46:56;18.80;;;9.97;;
16199;SDS011;8207;52.494;4.654;2023-04-24T05:49:23;15.90;;;8.83;;
16199;SDS011;8207;52.494;4.654;2023-04-24T05:51:50;14.33;;;7.67;;
16199;SDS011;8207;52.494;4.654;2023-04-24T05:54:17;17.50;;;7.97;;
16199;SDS011;8207;52.494;4.654;2023-04-24T05:56:43;13.10;;;7.70;;
16199;SDS011;8207;52.494;4.654;2023-04-24T05:59:12;16.47;;;8.03;;
16199;SDS011;8207;52.494;4.654;2023-04-24T06:01:39;17.70;;;7.60;;
16199;SDS011;8207;52.494;4.654;2023-04-24T06:04:06;12.90;;;7.70;;
16199;SDS011;8207;52.494;4.654;2023-04-24T06:06:34;16.20;;;7.77;;
16199;SDS011;8207;52.494;4.654;2023-04-24T06:09:01;14.27;;;7.43;;
16199;SDS011;8207;52.494;4.654;2023-04-24T06:11:28;15.13;;;7.43;;
16199;SDS011;8207;52.494;4.654;2023-04-24T06:13:55;22.77;;;7.90;;
16199;SDS011;8207;52.494;4.654;2023-04-24T06:16:24;18.00;;;7.30;;
16199;SDS011;8207;52.494;4.654;2023-04-24T06:18:51;18.07;;;7.13;;
16199;SDS011;8207;52.494;4.654;2023-04-24T06:21:18;12.83;;;6.33;;
16199;SDS011;8207;52.494;4.654;2023-04-24T06:23:44;19.57;;;7.30;;
16199;SDS011;8207;52.494;4.654;2023-04-24T06:26:12;18.23;;;6.20;;
16199;SDS011;8207;52.494;4.654;2023-04-24T06:28:39;18.73;;;6.40;;
16199;SDS011;8207;52.494;4.654;2023-04-24T06:31:06;21.07;;;7.07;;
16199;SDS011;8207;52.494;4.654;2023-04-24T06:33:34;14.67;;;6.67;;
16199;SDS011;8207;52.494;4.654;2023-04-24T06:36:01;16.73;;;6.03;;
16199;SDS011;8207;52.494;4.654;2023-04-24T06:38:29;16.87;;;6.50;;
16199;SDS011;8207;52.494;4.654;2023-04-24T06:40:56;17.73;;;6.50;;
16199;SDS011;8207;52.494;4.654;2023-04-24T06:43:22;19.27;;;6.30;;
16199;SDS011;8207;52.494;4.654;2023-04-24T06:45:49;24.60;;;5.83;;
16199;SDS011;8207;52.494;4.654;2023-04-24T06:55:23;12.97;;;5.20;;
16199;SDS011;8207;52.494;4.654;2023-04-24T06:57:49;19.67;;;5.13;;
16199;SDS011;8207;52.494;4.654;2023-04-24T07:00:16;16.00;;;5.23;;
16199;SDS011;8207;52.494;4.654;2023-04-24T07:02:43;19.23;;;4.33;;
16199;SDS011;8207;52.494;4.654;2023-04-24T07:05:10;18.33;;;4.73;;
16199;SDS011;8207;52.494;4.654;2023-04-24T07:07:37;16.00;;;4.27;;
16199;SDS011;8207;52.494;4.654;2023-04-24T07:10:05;19.90;;;4.70;;
16199;SDS011;8207;52.494;4.654;2023-04-24T07:12:35;20.57;;;5.77;;
16199;SDS011;8207;52.494;4.654;2023-04-24T07:15:08;17.57;;;4.83;;
16199;SDS011;8207;52.494;4.654;2023-04-24T07:17:36;15.70;;;3.87;;
16199;SDS011;8207;52.494;4.654;2023-04-24T07:20:08;17.77;;;3.83;;
16199;SDS011;8207;52.494;4.654;2023-04-24T07:22:35;14.37;;;3.87;;
16199;SDS011;8207;52.494;4.654;2023-04-24T07:25:03;15.10;;;4.83;;
16199;SDS011;8207;52.494;4.654;2023-04-24T07:27:31;18.30;;;4.60;;
16199;SDS011;8207;52.494;4.654;2023-04-24T07:29:59;15.80;;;3.70;;
16199;SDS011;8207;52.494;4.654;2023-04-24T07:32:26;23.87;;;4.83;;
16199;SDS011;8207;52.494;4.654;2023-04-24T07:34:53;15.87;;;3.80;;
16199;SDS011;8207;52.494;4.654;2023-04-24T07:37:20;11.13;;;3.10;;
16199;SDS011;8207;52.494;4.654;2023-04-24T07:39:47;18.43;;;5.00;;
16199;SDS011;8207;52.494;4.654;2023-04-24T07:42:13;18.67;;;4.00;;
16199;SDS011;8207;52.494;4.654;2023-04-24T07:44:40;13.30;;;3.40;;
16199;SDS011;8207;52.494;4.654;2023-04-24T07:47:08;14.90;;;3.50;;
16199;SDS011;8207;52.494;4.654;2023-04-24T07:49:35;12.83;;;2.60;;
16199;SDS011;8207;52.494;4.654;2023-04-24T07:52:02;15.10;;;3.83;;
16199;SDS011;8207;52.494;4.654;2023-04-24T07:54:30;12.57;;;3.43;;
16199;SDS011;8207;52.494;4.654;2023-04-24T07:56:57;14.50;;;3.47;;
16199;SDS011;8207;52.494;4.654;2023-04-24T07:59:25;7.80;;;2.60;;
16199;SDS011;8207;52.494;4.654;2023-04-24T08:01:52;11.57;;;2.73;;
16199;SDS011;8207;52.494;4.654;2023-04-24T08:04:20;10.53;;;2.53;;
16199;SDS011;8207;52.494;4.654;2023-04-24T08:06:47;8.87;;;2.57;;
16199;SDS011;8207;52.494;4.654;2023-04-24T08:09:14;7.60;;;2.67;;
16199;SDS011;8207;52.494;4.654;2023-04-24T08:11:41;17.67;;;3.10;;
16199;SDS011;8207;52.494;4.654;2023-04-24T08:14:08;8.53;;;2.50;;
16199;SDS011;8207;52.494;4.654;2023-04-24T08:16:37;7.47;;;2.33;;
16199;SDS011;8207;52.494;4.654;2023-04-24T08:19:04;10.73;;;2.40;;
16199;SDS011;8207;52.494;4.654;2023-04-24T08:21:32;12.57;;;3.30;;
16199;SDS011;8207;52.494;4.654;2023-04-24T08:23:59;10.73;;;3.53;;
16199;SDS011;8207;52.494;4.654;2023-04-24T08:26:30;11.47;;;3.20;;
16199;SDS011;8207;52.494;4.654;2023-04-24T08:28:57;10.47;;;2.97;;
16199;SDS011;8207;52.494;4.654;2023-04-24T08:31:24;14.47;;;3.07;;
16199;SDS011;8207;52.494;4.654;2023-04-24T08:33:51;14.30;;;3.60;;
16199;SDS011;8207;52.494;4.654;2023-04-24T08:36:18;9.73;;;2.50;;
16199;SDS011;8207;52.494;4.654;2023-04-24T08:38:46;11.97;;;2.87;;
16199;SDS011;8207;52.494;4.654;2023-04-24T08:41:13;12.17;;;2.43;;
16199;SDS011;8207;52.494;4.654;2023-04-24T08:43:41;8.43;;;2.70;;
16199;SDS011;8207;52.494;4.654;2023-04-24T08:46:09;10.40;;;2.30;;
16199;SDS011;8207;52.494;4.654;2023-04-24T08:48:36;12.43;;;2.40;;
16199;SDS011;8207;52.494;4.654;2023-04-24T08:51:05;12.43;;;2.97;;
16199;SDS011;8207;52.494;4.654;2023-04-24T08:53:34;8.30;;;2.37;;
16199;SDS011;8207;52.494;4.654;2023-04-24T08:56:03;11.47;;;2.30;;
16199;SDS011;8207;52.494;4.654;2023-04-24T08:58:31;6.43;;;2.00;;
16199;SDS011;8207;52.494;4.654;2023-04-24T09:00:58;8.37;;;2.40;;
16199;SDS011;8207;52.494;4.654;2023-04-24T09:03:26;9.57;;;3.53;;
16199;SDS011;8207;52.494;4.654;2023-04-24T09:05:54;13.13;;;2.43;;
16199;SDS011;8207;52.494;4.654;2023-04-24T09:08:23;5.43;;;2.00;;
16199;SDS011;8207;52.494;4.654;2023-04-24T09:10:51;7.37;;;2.30;;
16199;SDS011;8207;52.494;4.654;2023-04-24T09:13:20;8.63;;;2.10;;
16199;SDS011;8207;52.494;4.654;2023-04-24T09:15:47;8.07;;;2.20;;
16199;SDS011;8207;52.494;4.654;2023-04-24T09:18:14;9.60;;;2.03;;
16199;SDS011;8207;52.494;4.654;2023-04-24T09:23:27;5.13;;;1.40;;
16199;SDS011;8207;52.494;4.654;2023-04-24T09:25:55;8.57;;;1.80;;
16199;SDS011;8207;52.494;4.654;2023-04-24T09:28:26;8.93;;;1.63;;
16199;SDS011;8207;52.494;4.654;2023-04-24T09:31:01;7.10;;;1.63;;
16199;SDS011;8207;52.494;4.654;2023-04-24T09:33:29;4.57;;;1.40;;
16199;SDS011;8207;52.494;4.654;2023-04-24T09:35:56;5.97;;;1.53;;
16199;SDS011;8207;52.494;4.654;2023-04-24T09:38:30;7.03;;;2.03;;
16199;SDS011;8207;52.494;4.654;2023-04-24T09:40:58;6.73;;;1.60;;
16199;SDS011;8207;52.494;4.654;2023-04-24T09:43:28;6.30;;;1.73;;
16199;SDS011;8207;52.494;4.654;2023-04-24T09:45:55;5.07;;;1.27;;
16199;SDS011;8207;52.494;4.654;2023-04-24T09:48:29;2.53;;;1.10;;
16199;SDS011;8207;52.494;4.654;2023-04-24T09:50:57;3.03;;;1.07;;
16199;SDS011;8207;52.494;4.654;2023-04-24T09:53:24;5.07;;;1.30;;
16199;SDS011;8207;52.494;4.654;2023-04-24T09:55:51;6.17;;;1.47;;
16199;SDS011;8207;52.494;4.654;2023-04-24T09:58:18;9.80;;;2.00;;
16199;SDS011;8207;52.494;4.654;2023-04-24T10:00:54;6.07;;;1.60;;
16199;SDS011;8207;52.494;4.654;2023-04-24T10:03:23;9.53;;;2.33;;
16199;SDS011;8207;52.494;4.654;2023-04-24T10:05:52;6.17;;;1.60;;
16199;SDS011;8207;52.494;4.654;2023-04-24T10:08:20;6.37;;;1.87;;
16199;SDS011;8207;52.494;4.654;2023-04-24T10:10:47;6.47;;;1.83;;
16199;SDS011;8207;52.494;4.654;2023-04-24T10:13:15;5.87;;;1.50;;
16199;SDS011;8207;52.494;4.654;2023-04-24T10:15:42;4.90;;;1.17;;
16199;SDS011;8207;52.494;4.654;2023-04-24T10:18:10;1.77;;;0.90;;
16199;SDS011;8207;52.494;4.654;2023-04-24T10:20:38;2.50;;;0.60;;
16199;SDS011;8207;52.494;4.654;2023-04-24T10:23:06;5.30;;;1.23;;
16199;SDS011;8207;52.494;4.654;2023-04-24T10:25:33;4.60;;;1.00;;
16199;SDS011;8207;52.494;4.654;2023-04-24T10:28:02;4.80;;;1.57;;
16199;SDS011;8207;52.494;4.654;2023-04-24T10:30:31;5.57;;;1.10;;
16199;SDS011;8207;52.494;4.654;2023-04-24T10:33:01;4.97;;;1.20;;
16199;SDS011;8207;52.494;4.654;2023-04-24T10:35:31;5.17;;;1.47;;
16199;SDS011;8207;52.494;4.654;2023-04-24T10:38:00;8.27;;;1.77;;
16199;SDS011;8207;52.494;4.654;2023-04-24T10:40:31;3.77;;;1.37;;
16199;SDS011;8207;52.494;4.654;2023-04-24T10:42:59;4.93;;;1.50;;
16199;SDS011;8207;52.494;4.654;2023-04-24T10:45:31;10.20;;;1.70;;
16199;SDS011;8207;52.494;4.654;2023-04-24T10:47:58;7.20;;;1.40;;
16199;SDS011;8207;52.494;4.654;2023-04-24T10:50:27;7.67;;;1.40;;
16199;SDS011;8207;52.494;4.654;2023-04-24T10:53:04;6.37;;;2.07;;
16199;SDS011;8207;52.494;4.654;2023-04-24T10:55:39;4.60;;;1.40;;
16199;SDS011;8207;52.494;4.654;2023-04-24T10:58:08;6.97;;;1.50;;
16199;SDS011;8207;52.494;4.654;2023-04-24T11:00:36;5.33;;;1.43;;
16199;SDS011;8207;52.494;4.654;2023-04-24T11:03:04;8.63;;;1.60;;
16199;SDS011;8207;52.494;4.654;2023-04-24T11:08:23;4.23;;;1.27;;
16199;SDS011;8207;52.494;4.654;2023-04-24T11:10:59;3.73;;;1.10;;
16199;SDS011;8207;52.494;4.654;2023-04-24T11:16:29;5.73;;;2.17;;
16199;SDS011;8207;52.494;4.654;2023-04-24T11:19:02;4.80;;;1.83;;
16199;SDS011;8207;52.494;4.654;2023-04-24T11:21:31;4.07;;;1.60;;
16199;SDS011;8207;52.494;4.654;2023-04-24T11:26:51;7.27;;;2.10;;
16199;SDS011;8207;52.494;4.654;2023-04-24T11:29:19;12.00;;;2.50;;
16199;SDS011;8207;52.494;4.654;2023-04-24T11:31:48;8.17;;;2.60;;
16199;SDS011;8207;52.494;4.654;2023-04-24T11:34:16;7.83;;;3.67;;
16199;SDS011;8207;52.494;4.654;2023-04-24T11:36:44;5.60;;;2.10;;
16199;SDS011;8207;52.494;4.654;2023-04-24T11:39:11;8.83;;;2.20;;
16199;SDS011;8207;52.494;4.654;2023-04-24T11:41:40;8.63;;;2.07;;
16199;SDS011;8207;52.494;4.654;2023-04-24T11:44:07;11.47;;;3.37;;
16199;SDS011;8207;52.494;4.654;2023-04-24T11:46:35;11.77;;;3.57;;
16199;SDS011;8207;52.494;4.654;2023-04-24T11:49:05;9.90;;;2.50;;
16199;SDS011;8207;52.494;4.654;2023-04-24T11:51:32;12.00;;;2.83;;
16199;SDS011;8207;52.494;4.654;2023-04-24T11:54:00;8.87;;;2.80;;
16199;SDS011;8207;52.494;4.654;2023-04-24T11:56:27;13.73;;;3.03;;
16199;SDS011;8207;52.494;4.654;2023-04-24T11:58:55;10.33;;;2.77;;
16199;SDS011;8207;52.494;4.654;2023-04-24T12:01:22;15.30;;;3.33;;
16199;SDS011;8207;52.494;4.654;2023-04-24T12:03:49;15.23;;;3.20;;
16199;SDS011;8207;52.494;4.654;2023-04-24T12:06:17;12.30;;;3.17;;
16199;SDS011;8207;52.494;4.654;2023-04-24T12:08:47;11.33;;;2.67;;
16199;SDS011;8207;52.494;4.654;2023-04-24T12:11:15;14.33;;;3.13;;
16199;SDS011;8207;52.494;4.654;2023-04-24T12:13:44;14.87;;;4.80;;
16199;SDS011;8207;52.494;4.654;2023-04-24T12:16:13;10.23;;;3.10;;
16199;SDS011;8207;52.494;4.654;2023-04-24T12:18:43;11.40;;;3.57;;
16199;SDS011;8207;52.494;4.654;2023-04-24T12:21:14;18.37;;;4.53;;
16199;SDS011;8207;52.494;4.654;2023-04-24T12:23:42;14.27;;;3.10;;
16199;SDS011;8207;52.494;4.654;2023-04-24T12:26:09;13.20;;;3.30;;
16199;SDS011;8207;52.494;4.654;2023-04-24T12:28:37;13.60;;;3.87;;
16199;SDS011;8207;52.494;4.654;2023-04-24T12:31:04;16.60;;;4.10;;
16199;SDS011;8207;52.494;4.654;2023-04-24T12:33:35;11.77;;;3.20;;
16199;SDS011;8207;52.494;4.654;2023-04-24T12:36:03;15.00;;;3.30;;
16199;SDS011;8207;52.494;4.654;2023-04-24T12:38:32;11.33;;;3.40;;
16199;SDS011;8207;52.494;4.654;2023-04-24T12:41:05;14.27;;;4.30;;
16199;SDS011;8207;52.494;4.654;2023-04-24T12:43:33;15.97;;;3.57;;
16199;SDS011;8207;52.494;4.654;2023-04-24T12:46:01;15.73;;;4.10;;
16199;SDS011;8207;52.494;4.654;2023-04-24T12:48:28;17.17;;;4.80;;
16199;SDS011;8207;52.494;4.654;2023-04-24T12:50:58;13.00;;;4.67;;
16199;SDS011;8207;52.494;4.654;2023-04-24T12:53:26;13.67;;;3.20;;
16199;SDS011;8207;52.494;4.654;2023-04-24T12:55:56;19.50;;;3.10;;
16199;SDS011;8207;52.494;4.654;2023-04-24T12:58:23;12.77;;;4.03;;
16199;SDS011;8207;52.494;4.654;2023-04-24T13:00:50;11.57;;;3.40;;
16199;SDS011;8207;52.494;4.654;2023-04-24T13:03:17;14.47;;;3.90;;
16199;SDS011;8207;52.494;4.654;2023-04-24T13:05:44;16.27;;;3.97;;
16199;SDS011;8207;52.494;4.654;2023-04-24T13:08:12;16.30;;;4.20;;
16199;SDS011;8207;52.494;4.654;2023-04-24T13:10:39;11.13;;;3.30;;
16199;SDS011;8207;52.494;4.654;2023-04-24T13:13:06;13.30;;;3.73;;
16199;SDS011;8207;52.494;4.654;2023-04-24T13:15:33;16.67;;;3.40;;
16199;SDS011;8207;52.494;4.654;2023-04-24T13:18:00;17.33;;;4.20;;
16199;SDS011;8207;52.494;4.654;2023-04-24T13:20:27;19.90;;;3.40;;
16199;SDS011;8207;52.494;4.654;2023-04-24T13:22:54;15.80;;;3.17;;
16199;SDS011;8207;52.494;4.654;2023-04-24T13:25:22;11.33;;;3.00;;
16199;SDS011;8207;52.494;4.654;2023-04-24T13:27:50;17.40;;;3.33;;
16199;SDS011;8207;52.494;4.654;2023-04-24T13:30:17;15.97;;;4.17;;
16199;SDS011;8207;52.494;4.654;2023-04-24T13:32:44;13.53;;;3.73;;
16199;SDS011;8207;52.494;4.654;2023-04-24T13:35:11;13.33;;;3.93;;
16199;SDS011;8207;52.494;4.654;2023-04-24T13:37:37;16.90;;;3.93;;
16199;SDS011;8207;52.494;4.654;2023-04-24T13:40:05;12.10;;;2.70;;
16199;SDS011;8207;52.494;4.654;2023-04-24T13:42:34;12.50;;;3.30;;
16199;SDS011;8207;52.494;4.654;2023-04-24T13:45:01;12.63;;;3.60;;
16199;SDS011;8207;52.494;4.654;2023-04-24T13:47:29;17.60;;;3.60;;
16199;SDS011;8207;52.494;4.654;2023-04-24T13:49:56;17.97;;;5.07;;
16199;SDS011;8207;52.494;4.654;2023-04-24T13:52:23;14.77;;;4.07;;
16199;SDS011;8207;52.494;4.654;2023-04-24T13:54:50;17.00;;;4.60;;
16199;SDS011;8207;52.494;4.654;2023-04-24T13:57:17;18.93;;;4.80;;
16199;SDS011;8207;52.494;4.654;2023-04-24T13:59:45;21.53;;;6.57;;
16199;SDS011;8207;52.494;4.654;2023-04-24T14:02:12;14.37;;;3.87;;
16199;SDS011;8207;52.494;4.654;2023-04-24T14:04:39;14.50;;;4.50;;
16199;SDS011;8207;52.494;4.654;2023-04-24T14:07:06;14.90;;;4.00;;
16199;SDS011;8207;52.494;4.654;2023-04-24T14:09:33;19.23;;;4.60;;
16199;SDS011;8207;52.494;4.654;2023-04-24T14:12:01;18.93;;;4.67;;
16199;SDS011;8207;52.494;4.654;2023-04-24T14:14:28;17.93;;;4.13;;
16199;SDS011;8207;52.494;4.654;2023-04-24T14:16:57;13.83;;;4.37;;
16199;SDS011;8207;52.494;4.654;2023-04-24T14:19:24;11.63;;;4.10;;
16199;SDS011;8207;52.494;4.654;2023-04-24T14:21:51;13.90;;;4.50;;
16199;SDS011;8207;52.494;4.654;2023-04-24T14:24:18;13.57;;;4.80;;
16199;SDS011;8207;52.494;4.654;2023-04-24T14:26:45;10.73;;;4.13;;
16199;SDS011;8207;52.494;4.654;2023-04-24T14:29:12;18.27;;;4.30;;
16199;SDS011;8207;52.494;4.654;2023-04-24T14:31:39;14.93;;;4.27;;
16199;SDS011;8207;52.494;4.654;2023-04-24T14:34:08;13.30;;;4.33;;
16199;SDS011;8207;52.494;4.654;2023-04-24T14:36:35;13.37;;;4.43;;
16199;SDS011;8207;52.494;4.654;2023-04-24T14:39:02;10.57;;;4.27;;
16199;SDS011;8207;52.494;4.654;2023-04-24T14:41:31;13.53;;;4.30;;
16199;SDS011;8207;52.494;4.654;2023-04-24T14:44:00;13.50;;;3.37;;
16199;SDS011;8207;52.494;4.654;2023-04-24T14:46:27;15.77;;;4.30;;
16199;SDS011;8207;52.494;4.654;2023-04-24T14:48:55;15.87;;;4.20;;
16199;SDS011;8207;52.494;4.654;2023-04-24T14:51:23;12.23;;;3.37;;
16199;SDS011;8207;52.494;4.654;2023-04-24T14:53:51;9.40;;;2.80;;
16199;SDS011;8207;52.494;4.654;2023-04-24T14:56:18;12.00;;;3.10;;
16199;SDS011;8207;52.494;4.654;2023-04-24T14:58:45;11.93;;;3.07;;
16199;SDS011;8207;52.494;4.654;2023-04-24T15:01:12;11.43;;;3.40;;
16199;SDS011;8207;52.494;4.654;2023-04-24T15:03:39;10.27;;;2.90;;
16199;SDS011;8207;52.494;4.654;2023-04-24T15:06:06;8.97;;;3.00;;
16199;SDS011;8207;52.494;4.654;2023-04-24T15:08:34;13.20;;;3.37;;
16199;SDS011;8207;52.494;4.654;2023-04-24T15:11:01;12.00;;;3.90;;
16199;SDS011;8207;52.494;4.654;2023-04-24T15:13:28;11.37;;;3.53;;